sensor_id;sensor_type;location;lat;lon;timestamp;P1;durP1;ratioP1;P2;durP2;ratioP2
15502;SDS011;7853;52.186;5.948;2022-08-03T00:03:02;7.33;;;2.67;;
15502;SDS011;7853;52.186;5.948;2022-08-03T00:03:07;6.87;;;2.39;;
15502;SDS011;7853;52.186;5.948;2022-08-03T00:03:07;8.94;;;2.60;;
15502;SDS011;7853;52.186;5.948;2022-08-03T00:03:34;6.03;;;2.59;;
15502;SDS011;7853;52.186;5.948;2022-08-03T00:04:34;11.25;;;2.72;;
15502;SDS011;7853;52.186;5.948;2022-08-03T00:05:35;7.74;;;2.90;;
15502;SDS011;7853;52.186;5.948;2022-08-03T00:06:34;5.98;;;2.33;;
15502;SDS011;7853;52.186;5.948;2022-08-03T00:07:34;8.75;;;2.50;;
15502;SDS011;7853;52.186;5.948;2022-08-03T00:08:34;7.42;;;2.50;;
15502;SDS011;7853;52.186;5.948;2022-08-03T00:09:34;5.67;;;2.48;;
15502;SDS011;7853;52.186;5.948;2022-08-03T00:10:34;6.91;;;2.41;;
15502;SDS011;7853;52.186;5.948;2022-08-03T00:11:34;8.01;;;2.37;;
15502;SDS011;7853;52.186;5.948;2022-08-03T00:12:34;8.01;;;2.69;;
15502;SDS011;7853;52.186;5.948;2022-08-03T00:13:34;6.07;;;2.39;;
15502;SDS011;7853;52.186;5.948;2022-08-03T00:14:34;8.24;;;2.53;;
15502;SDS011;7853;52.186;5.948;2022-08-03T00:15:34;9.00;;;2.85;;
15502;SDS011;7853;52.186;5.948;2022-08-03T00:16:34;6.76;;;2.52;;
15502;SDS011;7853;52.186;5.948;2022-08-03T00:17:35;7.33;;;2.45;;
15502;SDS011;7853;52.186;5.948;2022-08-03T00:18:35;9.64;;;2.76;;
15502;SDS011;7853;52.186;5.948;2022-08-03T00:19:35;7.91;;;2.77;;
15502;SDS011;7853;52.186;5.948;2022-08-03T00:20:35;7.24;;;2.81;;
15502;SDS011;7853;52.186;5.948;2022-08-03T00:21:35;6.56;;;2.37;;
15502;SDS011;7853;52.186;5.948;2022-08-03T00:22:35;8.29;;;2.79;;
15502;SDS011;7853;52.186;5.948;2022-08-03T00:23:35;8.28;;;2.37;;
15502;SDS011;7853;52.186;5.948;2022-08-03T00:24:35;8.58;;;2.43;;
15502;SDS011;7853;52.186;5.948;2022-08-03T00:25:35;7.38;;;2.63;;
15502;SDS011;7853;52.186;5.948;2022-08-03T00:26:35;7.52;;;2.80;;
15502;SDS011;7853;52.186;5.948;2022-08-03T00:27:35;7.59;;;2.73;;
15502;SDS011;7853;52.186;5.948;2022-08-03T00:28:35;5.56;;;2.25;;
15502;SDS011;7853;52.186;5.948;2022-08-03T00:29:35;9.21;;;2.45;;
15502;SDS011;7853;52.186;5.948;2022-08-03T00:30:35;6.49;;;2.39;;
15502;SDS011;7853;52.186;5.948;2022-08-03T00:31:35;8.31;;;2.56;;
15502;SDS011;7853;52.186;5.948;2022-08-03T00:32:35;7.28;;;2.88;;
15502;SDS011;7853;52.186;5.948;2022-08-03T00:33:35;8.49;;;2.90;;
15502;SDS011;7853;52.186;5.948;2022-08-03T00:34:35;8.28;;;2.85;;
15502;SDS011;7853;52.186;5.948;2022-08-03T00:35:36;5.94;;;2.75;;
15502;SDS011;7853;52.186;5.948;2022-08-03T00:36:35;8.13;;;2.48;;
15502;SDS011;7853;52.186;5.948;2022-08-03T00:37:35;8.06;;;2.89;;
15502;SDS011;7853;52.186;5.948;2022-08-03T00:38:35;7.63;;;2.76;;
15502;SDS011;7853;52.186;5.948;2022-08-03T00:39:36;10.83;;;2.90;;
15502;SDS011;7853;52.186;5.948;2022-08-03T00:40:36;7.89;;;2.74;;
15502;SDS011;7853;52.186;5.948;2022-08-03T00:41:36;10.66;;;2.78;;
15502;SDS011;7853;52.186;5.948;2022-08-03T00:42:44;7.33;;;2.76;;
15502;SDS011;7853;52.186;5.948;2022-08-03T00:43:36;7.29;;;2.58;;
15502;SDS011;7853;52.186;5.948;2022-08-03T00:44:38;6.40;;;2.69;;
15502;SDS011;7853;52.186;5.948;2022-08-03T00:45:37;6.95;;;2.52;;
15502;SDS011;7853;52.186;5.948;2022-08-03T00:46:36;7.46;;;2.52;;
15502;SDS011;7853;52.186;5.948;2022-08-03T00:47:36;5.17;;;2.56;;
15502;SDS011;7853;52.186;5.948;2022-08-03T00:48:36;5.67;;;2.54;;
15502;SDS011;7853;52.186;5.948;2022-08-03T00:49:36;8.53;;;2.55;;
15502;SDS011;7853;52.186;5.948;2022-08-03T00:50:37;8.29;;;2.79;;
15502;SDS011;7853;52.186;5.948;2022-08-03T00:51:36;7.98;;;2.56;;
15502;SDS011;7853;52.186;5.948;2022-08-03T00:52:36;6.79;;;2.57;;
15502;SDS011;7853;52.186;5.948;2022-08-03T00:53:36;8.78;;;2.81;;
15502;SDS011;7853;52.186;5.948;2022-08-03T00:54:37;8.98;;;3.18;;
15502;SDS011;7853;52.186;5.948;2022-08-03T00:55:37;8.98;;;2.34;;
15502;SDS011;7853;52.186;5.948;2022-08-03T00:56:36;8.71;;;2.89;;
15502;SDS011;7853;52.186;5.948;2022-08-03T00:57:37;9.10;;;2.72;;
15502;SDS011;7853;52.186;5.948;2022-08-03T00:58:37;6.47;;;2.71;;
15502;SDS011;7853;52.186;5.948;2022-08-03T00:59:37;5.35;;;2.41;;
15502;SDS011;7853;52.186;5.948;2022-08-03T01:00:37;7.48;;;2.67;;
15502;SDS011;7853;52.186;5.948;2022-08-03T01:01:37;6.87;;;2.62;;
15502;SDS011;7853;52.186;5.948;2022-08-03T01:02:37;6.22;;;2.99;;
15502;SDS011;7853;52.186;5.948;2022-08-03T01:03:37;7.28;;;2.47;;
15502;SDS011;7853;52.186;5.948;2022-08-03T01:04:37;6.49;;;2.44;;
15502;SDS011;7853;52.186;5.948;2022-08-03T01:05:39;5.62;;;2.58;;
15502;SDS011;7853;52.186;5.948;2022-08-03T01:06:40;6.17;;;2.28;;
15502;SDS011;7853;52.186;5.948;2022-08-03T01:07:46;4.51;;;2.26;;
15502;SDS011;7853;52.186;5.948;2022-08-03T01:08:38;5.34;;;2.32;;
15502;SDS011;7853;52.186;5.948;2022-08-03T01:09:40;5.02;;;2.34;;
15502;SDS011;7853;52.186;5.948;2022-08-03T01:10:38;6.18;;;2.37;;
15502;SDS011;7853;52.186;5.948;2022-08-03T01:11:39;6.52;;;2.44;;
15502;SDS011;7853;52.186;5.948;2022-08-03T01:12:38;6.39;;;2.67;;
15502;SDS011;7853;52.186;5.948;2022-08-03T01:13:39;6.37;;;2.63;;
15502;SDS011;7853;52.186;5.948;2022-08-03T01:14:38;5.49;;;2.39;;
15502;SDS011;7853;52.186;5.948;2022-08-03T01:15:39;7.99;;;2.49;;
15502;SDS011;7853;52.186;5.948;2022-08-03T01:16:39;6.59;;;2.57;;
15502;SDS011;7853;52.186;5.948;2022-08-03T01:17:39;5.96;;;2.62;;
15502;SDS011;7853;52.186;5.948;2022-08-03T01:18:40;5.25;;;2.24;;
15502;SDS011;7853;52.186;5.948;2022-08-03T01:19:40;7.65;;;2.53;;
15502;SDS011;7853;52.186;5.948;2022-08-03T01:20:39;6.66;;;2.58;;
15502;SDS011;7853;52.186;5.948;2022-08-03T01:21:39;5.74;;;2.45;;
15502;SDS011;7853;52.186;5.948;2022-08-03T01:22:44;6.67;;;2.42;;
15502;SDS011;7853;52.186;5.948;2022-08-03T01:23:48;5.53;;;2.39;;
15502;SDS011;7853;52.186;5.948;2022-08-03T01:24:43;9.70;;;2.67;;
15502;SDS011;7853;52.186;5.948;2022-08-03T01:25:39;9.02;;;2.60;;
15502;SDS011;7853;52.186;5.948;2022-08-03T01:26:47;7.78;;;2.92;;
15502;SDS011;7853;52.186;5.948;2022-08-03T01:27:42;9.36;;;3.10;;
15502;SDS011;7853;52.186;5.948;2022-08-03T01:28:47;7.82;;;2.64;;
15502;SDS011;7853;52.186;5.948;2022-08-03T01:29:44;9.82;;;3.03;;
15502;SDS011;7853;52.186;5.948;2022-08-03T01:30:39;7.22;;;2.76;;
15502;SDS011;7853;52.186;5.948;2022-08-03T01:31:39;5.94;;;2.58;;
15502;SDS011;7853;52.186;5.948;2022-08-03T01:32:40;8.15;;;2.85;;
15502;SDS011;7853;52.186;5.948;2022-08-03T01:33:40;11.86;;;2.80;;
15502;SDS011;7853;52.186;5.948;2022-08-03T01:34:40;11.35;;;2.81;;
15502;SDS011;7853;52.186;5.948;2022-08-03T01:35:40;7.19;;;2.95;;
15502;SDS011;7853;52.186;5.948;2022-08-03T01:36:39;8.32;;;2.79;;
15502;SDS011;7853;52.186;5.948;2022-08-03T01:37:40;7.24;;;2.68;;
15502;SDS011;7853;52.186;5.948;2022-08-03T01:38:40;8.69;;;2.60;;
15502;SDS011;7853;52.186;5.948;2022-08-03T01:39:39;6.97;;;3.04;;
15502;SDS011;7853;52.186;5.948;2022-08-03T01:40:39;10.29;;;2.94;;
15502;SDS011;7853;52.186;5.948;2022-08-03T01:41:41;6.12;;;2.87;;
15502;SDS011;7853;52.186;5.948;2022-08-03T01:42:40;6.73;;;2.94;;
15502;SDS011;7853;52.186;5.948;2022-08-03T01:43:39;7.64;;;3.01;;
15502;SDS011;7853;52.186;5.948;2022-08-03T01:44:40;11.25;;;3.39;;
15502;SDS011;7853;52.186;5.948;2022-08-03T01:45:39;14.27;;;3.27;;
15502;SDS011;7853;52.186;5.948;2022-08-03T01:46:39;7.76;;;2.98;;
15502;SDS011;7853;52.186;5.948;2022-08-03T01:47:40;8.60;;;2.90;;
15502;SDS011;7853;52.186;5.948;2022-08-03T01:48:39;9.90;;;2.97;;
15502;SDS011;7853;52.186;5.948;2022-08-03T01:49:42;10.59;;;3.08;;
15502;SDS011;7853;52.186;5.948;2022-08-03T01:50:39;7.21;;;3.03;;
15502;SDS011;7853;52.186;5.948;2022-08-03T01:51:41;6.97;;;2.83;;
15502;SDS011;7853;52.186;5.948;2022-08-03T01:52:40;8.10;;;3.16;;
15502;SDS011;7853;52.186;5.948;2022-08-03T01:53:40;8.96;;;2.95;;
15502;SDS011;7853;52.186;5.948;2022-08-03T01:54:41;8.51;;;3.01;;
15502;SDS011;7853;52.186;5.948;2022-08-03T01:55:40;7.21;;;3.07;;
15502;SDS011;7853;52.186;5.948;2022-08-03T01:56:40;7.22;;;3.12;;
15502;SDS011;7853;52.186;5.948;2022-08-03T01:57:40;6.99;;;3.19;;
15502;SDS011;7853;52.186;5.948;2022-08-03T01:58:40;7.22;;;3.05;;
15502;SDS011;7853;52.186;5.948;2022-08-03T01:59:40;11.87;;;3.10;;
15502;SDS011;7853;52.186;5.948;2022-08-03T02:00:40;7.69;;;3.02;;
15502;SDS011;7853;52.186;5.948;2022-08-03T02:01:40;7.57;;;2.97;;
15502;SDS011;7853;52.186;5.948;2022-08-03T02:02:40;7.31;;;3.03;;
15502;SDS011;7853;52.186;5.948;2022-08-03T02:03:40;8.97;;;2.93;;
15502;SDS011;7853;52.186;5.948;2022-08-03T02:04:40;8.67;;;3.10;;
15502;SDS011;7853;52.186;5.948;2022-08-03T02:05:40;7.12;;;3.09;;
15502;SDS011;7853;52.186;5.948;2022-08-03T02:06:40;9.43;;;3.10;;
15502;SDS011;7853;52.186;5.948;2022-08-03T02:07:41;6.57;;;2.98;;
15502;SDS011;7853;52.186;5.948;2022-08-03T02:08:41;8.19;;;3.27;;
15502;SDS011;7853;52.186;5.948;2022-08-03T02:09:41;7.35;;;2.86;;
15502;SDS011;7853;52.186;5.948;2022-08-03T02:10:41;7.25;;;2.85;;
15502;SDS011;7853;52.186;5.948;2022-08-03T02:11:41;6.67;;;2.90;;
15502;SDS011;7853;52.186;5.948;2022-08-03T02:12:41;7.90;;;3.29;;
15502;SDS011;7853;52.186;5.948;2022-08-03T02:13:41;7.04;;;2.91;;
15502;SDS011;7853;52.186;5.948;2022-08-03T02:14:42;8.58;;;2.94;;
15502;SDS011;7853;52.186;5.948;2022-08-03T02:15:41;7.58;;;2.93;;
15502;SDS011;7853;52.186;5.948;2022-08-03T02:16:41;8.80;;;3.26;;
15502;SDS011;7853;52.186;5.948;2022-08-03T02:17:41;9.99;;;3.28;;
15502;SDS011;7853;52.186;5.948;2022-08-03T02:18:41;10.70;;;3.25;;
15502;SDS011;7853;52.186;5.948;2022-08-03T02:19:41;9.02;;;3.19;;
15502;SDS011;7853;52.186;5.948;2022-08-03T02:20:42;9.53;;;3.20;;
15502;SDS011;7853;52.186;5.948;2022-08-03T02:21:41;8.06;;;3.43;;
15502;SDS011;7853;52.186;5.948;2022-08-03T02:22:41;7.34;;;2.93;;
15502;SDS011;7853;52.186;5.948;2022-08-03T02:23:41;9.61;;;3.20;;
15502;SDS011;7853;52.186;5.948;2022-08-03T02:24:41;10.36;;;3.07;;
15502;SDS011;7853;52.186;5.948;2022-08-03T02:25:42;9.64;;;3.66;;
15502;SDS011;7853;52.186;5.948;2022-08-03T02:26:41;8.71;;;3.54;;
15502;SDS011;7853;52.186;5.948;2022-08-03T02:27:42;8.32;;;3.41;;
15502;SDS011;7853;52.186;5.948;2022-08-03T02:28:42;8.41;;;3.46;;
15502;SDS011;7853;52.186;5.948;2022-08-03T02:29:41;11.44;;;3.39;;
15502;SDS011;7853;52.186;5.948;2022-08-03T02:30:42;11.71;;;3.77;;
15502;SDS011;7853;52.186;5.948;2022-08-03T02:31:42;10.07;;;3.63;;
15502;SDS011;7853;52.186;5.948;2022-08-03T02:32:43;10.61;;;3.48;;
15502;SDS011;7853;52.186;5.948;2022-08-03T02:33:43;10.24;;;3.89;;
15502;SDS011;7853;52.186;5.948;2022-08-03T02:34:43;7.66;;;3.06;;
15502;SDS011;7853;52.186;5.948;2022-08-03T02:35:42;11.29;;;3.65;;
15502;SDS011;7853;52.186;5.948;2022-08-03T02:36:43;10.83;;;3.83;;
15502;SDS011;7853;52.186;5.948;2022-08-03T02:37:43;7.56;;;3.52;;
15502;SDS011;7853;52.186;5.948;2022-08-03T02:38:42;9.00;;;3.34;;
15502;SDS011;7853;52.186;5.948;2022-08-03T02:39:42;8.23;;;3.65;;
15502;SDS011;7853;52.186;5.948;2022-08-03T02:40:42;8.07;;;3.54;;
15502;SDS011;7853;52.186;5.948;2022-08-03T02:41:44;9.40;;;3.76;;
15502;SDS011;7853;52.186;5.948;2022-08-03T02:42:42;12.00;;;3.78;;
15502;SDS011;7853;52.186;5.948;2022-08-03T02:43:43;9.47;;;3.19;;
15502;SDS011;7853;52.186;5.948;2022-08-03T02:44:43;10.15;;;3.48;;
15502;SDS011;7853;52.186;5.948;2022-08-03T02:45:44;11.13;;;3.81;;
15502;SDS011;7853;52.186;5.948;2022-08-03T02:46:44;8.91;;;3.30;;
15502;SDS011;7853;52.186;5.948;2022-08-03T02:47:42;9.98;;;3.92;;
15502;SDS011;7853;52.186;5.948;2022-08-03T02:48:42;12.21;;;3.64;;
15502;SDS011;7853;52.186;5.948;2022-08-03T02:49:43;9.67;;;3.26;;
15502;SDS011;7853;52.186;5.948;2022-08-03T02:50:43;10.71;;;3.38;;
15502;SDS011;7853;52.186;5.948;2022-08-03T02:51:43;9.06;;;3.37;;
15502;SDS011;7853;52.186;5.948;2022-08-03T02:52:43;9.22;;;3.67;;
15502;SDS011;7853;52.186;5.948;2022-08-03T02:53:43;9.54;;;3.48;;
15502;SDS011;7853;52.186;5.948;2022-08-03T02:54:43;12.20;;;3.83;;
15502;SDS011;7853;52.186;5.948;2022-08-03T02:55:43;10.34;;;3.78;;
15502;SDS011;7853;52.186;5.948;2022-08-03T02:56:43;7.87;;;3.33;;
15502;SDS011;7853;52.186;5.948;2022-08-03T02:57:43;12.25;;;3.60;;
15502;SDS011;7853;52.186;5.948;2022-08-03T02:58:43;10.17;;;4.20;;
15502;SDS011;7853;52.186;5.948;2022-08-03T02:59:43;11.09;;;3.48;;
15502;SDS011;7853;52.186;5.948;2022-08-03T03:00:43;10.39;;;3.58;;
15502;SDS011;7853;52.186;5.948;2022-08-03T03:01:43;7.66;;;3.53;;
15502;SDS011;7853;52.186;5.948;2022-08-03T03:02:43;7.81;;;3.91;;
15502;SDS011;7853;52.186;5.948;2022-08-03T03:03:43;8.25;;;3.60;;
15502;SDS011;7853;52.186;5.948;2022-08-03T03:04:43;10.17;;;3.64;;
15502;SDS011;7853;52.186;5.948;2022-08-03T03:05:43;7.57;;;3.24;;
15502;SDS011;7853;52.186;5.948;2022-08-03T03:06:43;7.22;;;3.28;;
15502;SDS011;7853;52.186;5.948;2022-08-03T03:07:43;9.16;;;3.47;;
15502;SDS011;7853;52.186;5.948;2022-08-03T03:08:44;7.04;;;3.31;;
15502;SDS011;7853;52.186;5.948;2022-08-03T03:09:43;8.97;;;3.16;;
15502;SDS011;7853;52.186;5.948;2022-08-03T03:10:44;9.33;;;3.61;;
15502;SDS011;7853;52.186;5.948;2022-08-03T03:11:44;9.22;;;3.66;;
15502;SDS011;7853;52.186;5.948;2022-08-03T03:12:44;8.58;;;3.49;;
15502;SDS011;7853;52.186;5.948;2022-08-03T03:13:44;8.73;;;3.64;;
15502;SDS011;7853;52.186;5.948;2022-08-03T03:14:44;7.92;;;3.56;;
15502;SDS011;7853;52.186;5.948;2022-08-03T03:15:44;9.29;;;3.44;;
15502;SDS011;7853;52.186;5.948;2022-08-03T03:16:44;10.25;;;3.83;;
15502;SDS011;7853;52.186;5.948;2022-08-03T03:17:44;8.59;;;3.49;;
15502;SDS011;7853;52.186;5.948;2022-08-03T03:18:44;10.16;;;4.06;;
15502;SDS011;7853;52.186;5.948;2022-08-03T03:19:44;8.11;;;3.46;;
15502;SDS011;7853;52.186;5.948;2022-08-03T03:20:44;9.43;;;3.94;;
15502;SDS011;7853;52.186;5.948;2022-08-03T03:21:44;8.28;;;3.51;;
15502;SDS011;7853;52.186;5.948;2022-08-03T03:22:44;8.10;;;3.84;;
15502;SDS011;7853;52.186;5.948;2022-08-03T03:23:44;10.14;;;4.11;;
15502;SDS011;7853;52.186;5.948;2022-08-03T03:24:44;9.75;;;3.81;;
15502;SDS011;7853;52.186;5.948;2022-08-03T03:25:44;10.93;;;3.98;;
15502;SDS011;7853;52.186;5.948;2022-08-03T03:26:44;8.53;;;4.04;;
15502;SDS011;7853;52.186;5.948;2022-08-03T03:27:44;10.27;;;4.05;;
15502;SDS011;7853;52.186;5.948;2022-08-03T03:28:44;10.08;;;3.82;;
15502;SDS011;7853;52.186;5.948;2022-08-03T03:29:44;12.35;;;4.03;;
15502;SDS011;7853;52.186;5.948;2022-08-03T03:30:44;10.41;;;4.10;;
15502;SDS011;7853;52.186;5.948;2022-08-03T03:31:44;10.79;;;4.11;;
15502;SDS011;7853;52.186;5.948;2022-08-03T03:32:45;10.31;;;4.11;;
15502;SDS011;7853;52.186;5.948;2022-08-03T03:33:45;11.15;;;4.42;;
15502;SDS011;7853;52.186;5.948;2022-08-03T03:34:45;10.98;;;4.04;;
15502;SDS011;7853;52.186;5.948;2022-08-03T03:35:45;8.79;;;4.04;;
15502;SDS011;7853;52.186;5.948;2022-08-03T03:36:45;9.63;;;3.94;;
15502;SDS011;7853;52.186;5.948;2022-08-03T03:37:45;11.75;;;4.21;;
15502;SDS011;7853;52.186;5.948;2022-08-03T03:38:45;11.81;;;3.99;;
15502;SDS011;7853;52.186;5.948;2022-08-03T03:39:45;12.84;;;4.20;;
15502;SDS011;7853;52.186;5.948;2022-08-03T03:40:45;10.25;;;3.89;;
15502;SDS011;7853;52.186;5.948;2022-08-03T03:41:45;8.55;;;3.53;;
15502;SDS011;7853;52.186;5.948;2022-08-03T03:42:45;9.89;;;4.11;;
15502;SDS011;7853;52.186;5.948;2022-08-03T03:43:45;8.75;;;3.95;;
15502;SDS011;7853;52.186;5.948;2022-08-03T03:44:45;9.80;;;3.66;;
15502;SDS011;7853;52.186;5.948;2022-08-03T03:45:46;13.00;;;4.36;;
15502;SDS011;7853;52.186;5.948;2022-08-03T03:46:45;14.27;;;4.24;;
15502;SDS011;7853;52.186;5.948;2022-08-03T03:47:45;10.86;;;4.13;;
15502;SDS011;7853;52.186;5.948;2022-08-03T03:48:45;8.60;;;4.04;;
15502;SDS011;7853;52.186;5.948;2022-08-03T03:49:45;10.42;;;4.05;;
15502;SDS011;7853;52.186;5.948;2022-08-03T03:50:45;9.96;;;3.93;;
15502;SDS011;7853;52.186;5.948;2022-08-03T03:51:46;8.29;;;4.03;;
15502;SDS011;7853;52.186;5.948;2022-08-03T03:52:46;12.74;;;4.26;;
15502;SDS011;7853;52.186;5.948;2022-08-03T03:53:53;10.33;;;3.88;;
15502;SDS011;7853;52.186;5.948;2022-08-03T03:54:46;8.67;;;4.10;;
15502;SDS011;7853;52.186;5.948;2022-08-03T03:55:46;10.57;;;4.11;;
15502;SDS011;7853;52.186;5.948;2022-08-03T03:56:46;12.53;;;4.51;;
15502;SDS011;7853;52.186;5.948;2022-08-03T03:57:46;10.31;;;4.48;;
15502;SDS011;7853;52.186;5.948;2022-08-03T03:58:46;10.36;;;3.76;;
15502;SDS011;7853;52.186;5.948;2022-08-03T03:59:46;10.67;;;4.67;;
15502;SDS011;7853;52.186;5.948;2022-08-03T04:00:46;10.50;;;4.24;;
15502;SDS011;7853;52.186;5.948;2022-08-03T04:01:46;11.30;;;4.35;;
15502;SDS011;7853;52.186;5.948;2022-08-03T04:02:46;10.76;;;4.00;;
15502;SDS011;7853;52.186;5.948;2022-08-03T04:03:47;9.83;;;4.61;;
15502;SDS011;7853;52.186;5.948;2022-08-03T04:04:46;9.44;;;4.15;;
15502;SDS011;7853;52.186;5.948;2022-08-03T04:05:47;11.73;;;4.85;;
15502;SDS011;7853;52.186;5.948;2022-08-03T04:06:46;13.29;;;4.69;;
15502;SDS011;7853;52.186;5.948;2022-08-03T04:07:48;14.01;;;4.34;;
15502;SDS011;7853;52.186;5.948;2022-08-03T04:08:47;12.28;;;4.44;;
15502;SDS011;7853;52.186;5.948;2022-08-03T04:09:47;10.54;;;4.70;;
15502;SDS011;7853;52.186;5.948;2022-08-03T04:10:48;7.81;;;3.92;;
15502;SDS011;7853;52.186;5.948;2022-08-03T04:11:48;10.15;;;4.48;;
15502;SDS011;7853;52.186;5.948;2022-08-03T04:12:47;11.24;;;4.49;;
15502;SDS011;7853;52.186;5.948;2022-08-03T04:13:49;10.77;;;4.59;;
15502;SDS011;7853;52.186;5.948;2022-08-03T04:14:47;13.85;;;4.46;;
15502;SDS011;7853;52.186;5.948;2022-08-03T04:15:47;11.16;;;4.71;;
15502;SDS011;7853;52.186;5.948;2022-08-03T04:16:48;11.25;;;4.22;;
15502;SDS011;7853;52.186;5.948;2022-08-03T04:17:47;8.29;;;4.16;;
15502;SDS011;7853;52.186;5.948;2022-08-03T04:18:48;13.41;;;4.46;;
15502;SDS011;7853;52.186;5.948;2022-08-03T04:19:48;10.86;;;4.44;;
15502;SDS011;7853;52.186;5.948;2022-08-03T04:20:47;9.11;;;4.16;;
15502;SDS011;7853;52.186;5.948;2022-08-03T04:21:48;11.61;;;4.04;;
15502;SDS011;7853;52.186;5.948;2022-08-03T04:22:48;11.61;;;3.93;;
15502;SDS011;7853;52.186;5.948;2022-08-03T04:23:49;16.65;;;4.47;;
15502;SDS011;7853;52.186;5.948;2022-08-03T04:24:49;10.72;;;4.23;;
15502;SDS011;7853;52.186;5.948;2022-08-03T04:25:48;14.75;;;4.14;;
15502;SDS011;7853;52.186;5.948;2022-08-03T04:26:48;13.53;;;4.35;;
15502;SDS011;7853;52.186;5.948;2022-08-03T04:27:48;12.49;;;4.05;;
15502;SDS011;7853;52.186;5.948;2022-08-03T04:28:49;12.08;;;4.56;;
15502;SDS011;7853;52.186;5.948;2022-08-03T04:29:48;11.11;;;4.08;;
15502;SDS011;7853;52.186;5.948;2022-08-03T04:30:48;11.15;;;4.18;;
15502;SDS011;7853;52.186;5.948;2022-08-03T04:31:48;13.09;;;4.41;;
15502;SDS011;7853;52.186;5.948;2022-08-03T04:32:48;8.19;;;3.66;;
15502;SDS011;7853;52.186;5.948;2022-08-03T04:33:49;12.40;;;4.25;;
15502;SDS011;7853;52.186;5.948;2022-08-03T04:34:48;10.21;;;4.53;;
15502;SDS011;7853;52.186;5.948;2022-08-03T04:35:48;13.50;;;4.59;;
15502;SDS011;7853;52.186;5.948;2022-08-03T04:36:48;10.37;;;4.23;;
15502;SDS011;7853;52.186;5.948;2022-08-03T04:37:48;13.46;;;4.76;;
15502;SDS011;7853;52.186;5.948;2022-08-03T04:38:52;10.68;;;4.51;;
15502;SDS011;7853;52.186;5.948;2022-08-03T04:39:48;14.61;;;4.73;;
15502;SDS011;7853;52.186;5.948;2022-08-03T04:40:48;12.99;;;4.65;;
15502;SDS011;7853;52.186;5.948;2022-08-03T04:41:48;15.27;;;4.82;;
15502;SDS011;7853;52.186;5.948;2022-08-03T04:42:48;10.54;;;4.75;;
15502;SDS011;7853;52.186;5.948;2022-08-03T04:43:48;13.71;;;4.87;;
15502;SDS011;7853;52.186;5.948;2022-08-03T04:44:48;12.23;;;4.74;;
15502;SDS011;7853;52.186;5.948;2022-08-03T04:45:49;14.36;;;4.72;;
15502;SDS011;7853;52.186;5.948;2022-08-03T04:46:49;11.73;;;4.20;;
15502;SDS011;7853;52.186;5.948;2022-08-03T04:47:49;11.15;;;4.47;;
15502;SDS011;7853;52.186;5.948;2022-08-03T04:48:49;13.22;;;4.68;;
15502;SDS011;7853;52.186;5.948;2022-08-03T04:49:49;9.43;;;4.31;;
15502;SDS011;7853;52.186;5.948;2022-08-03T04:50:49;15.02;;;4.33;;
15502;SDS011;7853;52.186;5.948;2022-08-03T04:51:49;13.06;;;4.47;;
15502;SDS011;7853;52.186;5.948;2022-08-03T04:52:49;11.30;;;4.61;;
15502;SDS011;7853;52.186;5.948;2022-08-03T04:53:49;14.85;;;4.53;;
15502;SDS011;7853;52.186;5.948;2022-08-03T04:54:49;11.96;;;4.61;;
15502;SDS011;7853;52.186;5.948;2022-08-03T04:55:49;11.21;;;4.24;;
15502;SDS011;7853;52.186;5.948;2022-08-03T04:56:49;9.55;;;4.27;;
15502;SDS011;7853;52.186;5.948;2022-08-03T04:57:49;8.63;;;4.24;;
15502;SDS011;7853;52.186;5.948;2022-08-03T04:58:49;11.27;;;5.50;;
15502;SDS011;7853;52.186;5.948;2022-08-03T04:59:50;10.77;;;5.17;;
15502;SDS011;7853;52.186;5.948;2022-08-03T05:00:49;9.17;;;4.97;;
15502;SDS011;7853;52.186;5.948;2022-08-03T05:01:49;17.49;;;5.62;;
15502;SDS011;7853;52.186;5.948;2022-08-03T05:02:49;15.64;;;6.30;;
15502;SDS011;7853;52.186;5.948;2022-08-03T05:03:49;15.27;;;5.87;;
15502;SDS011;7853;52.186;5.948;2022-08-03T05:04:50;15.61;;;5.60;;
15502;SDS011;7853;52.186;5.948;2022-08-03T05:05:50;13.20;;;6.34;;
15502;SDS011;7853;52.186;5.948;2022-08-03T05:06:50;14.11;;;6.32;;
15502;SDS011;7853;52.186;5.948;2022-08-03T05:07:50;14.18;;;6.46;;
15502;SDS011;7853;52.186;5.948;2022-08-03T05:08:50;13.40;;;5.91;;
15502;SDS011;7853;52.186;5.948;2022-08-03T05:09:50;15.48;;;6.38;;
15502;SDS011;7853;52.186;5.948;2022-08-03T05:10:50;14.60;;;6.15;;
15502;SDS011;7853;52.186;5.948;2022-08-03T05:11:50;17.38;;;6.47;;
15502;SDS011;7853;52.186;5.948;2022-08-03T05:12:50;15.00;;;6.44;;
15502;SDS011;7853;52.186;5.948;2022-08-03T05:13:50;12.40;;;5.65;;
15502;SDS011;7853;52.186;5.948;2022-08-03T05:14:50;14.27;;;5.59;;
15502;SDS011;7853;52.186;5.948;2022-08-03T05:15:50;14.49;;;5.87;;
15502;SDS011;7853;52.186;5.948;2022-08-03T05:16:50;12.87;;;5.73;;
15502;SDS011;7853;52.186;5.948;2022-08-03T05:17:50;15.17;;;5.50;;
15502;SDS011;7853;52.186;5.948;2022-08-03T05:18:50;12.17;;;5.27;;
15502;SDS011;7853;52.186;5.948;2022-08-03T05:19:50;15.94;;;5.91;;
15502;SDS011;7853;52.186;5.948;2022-08-03T05:20:50;15.79;;;6.25;;
15502;SDS011;7853;52.186;5.948;2022-08-03T05:21:50;11.80;;;5.11;;
15502;SDS011;7853;52.186;5.948;2022-08-03T05:22:50;11.75;;;5.10;;
15502;SDS011;7853;52.186;5.948;2022-08-03T05:23:51;16.83;;;5.46;;
15502;SDS011;7853;52.186;5.948;2022-08-03T05:24:51;12.11;;;5.84;;
15502;SDS011;7853;52.186;5.948;2022-08-03T05:25:51;15.31;;;5.46;;
15502;SDS011;7853;52.186;5.948;2022-08-03T05:26:51;13.27;;;5.42;;
15502;SDS011;7853;52.186;5.948;2022-08-03T05:27:51;12.41;;;5.62;;
15502;SDS011;7853;52.186;5.948;2022-08-03T05:28:51;14.80;;;5.60;;
15502;SDS011;7853;52.186;5.948;2022-08-03T05:29:51;12.27;;;5.51;;
15502;SDS011;7853;52.186;5.948;2022-08-03T05:30:51;14.91;;;5.38;;
15502;SDS011;7853;52.186;5.948;2022-08-03T05:31:51;13.79;;;5.60;;
15502;SDS011;7853;52.186;5.948;2022-08-03T05:32:51;13.47;;;5.83;;
15502;SDS011;7853;52.186;5.948;2022-08-03T05:33:51;15.50;;;6.00;;
15502;SDS011;7853;52.186;5.948;2022-08-03T05:34:51;14.46;;;5.43;;
15502;SDS011;7853;52.186;5.948;2022-08-03T05:35:51;15.40;;;5.80;;
15502;SDS011;7853;52.186;5.948;2022-08-03T05:36:51;15.77;;;5.85;;
15502;SDS011;7853;52.186;5.948;2022-08-03T05:37:51;12.60;;;5.79;;
15502;SDS011;7853;52.186;5.948;2022-08-03T05:38:51;15.07;;;5.64;;
15502;SDS011;7853;52.186;5.948;2022-08-03T05:39:51;13.62;;;5.63;;
15502;SDS011;7853;52.186;5.948;2022-08-03T05:40:51;12.32;;;5.40;;
15502;SDS011;7853;52.186;5.948;2022-08-03T05:41:52;14.75;;;6.21;;
15502;SDS011;7853;52.186;5.948;2022-08-03T05:42:52;15.39;;;6.21;;
15502;SDS011;7853;52.186;5.948;2022-08-03T05:43:52;11.91;;;5.40;;
15502;SDS011;7853;52.186;5.948;2022-08-03T05:44:52;13.99;;;5.78;;
15502;SDS011;7853;52.186;5.948;2022-08-03T05:45:52;15.33;;;5.42;;
15502;SDS011;7853;52.186;5.948;2022-08-03T05:46:52;12.72;;;5.58;;
15502;SDS011;7853;52.186;5.948;2022-08-03T05:47:52;16.46;;;5.66;;
15502;SDS011;7853;52.186;5.948;2022-08-03T05:48:52;15.66;;;6.07;;
15502;SDS011;7853;52.186;5.948;2022-08-03T05:49:52;13.18;;;5.43;;
15502;SDS011;7853;52.186;5.948;2022-08-03T05:50:52;14.41;;;6.09;;
15502;SDS011;7853;52.186;5.948;2022-08-03T05:51:52;13.39;;;5.07;;
15502;SDS011;7853;52.186;5.948;2022-08-03T05:52:54;14.97;;;5.92;;
15502;SDS011;7853;52.186;5.948;2022-08-03T05:53:52;15.58;;;5.95;;
15502;SDS011;7853;52.186;5.948;2022-08-03T05:54:52;13.53;;;5.53;;
15502;SDS011;7853;52.186;5.948;2022-08-03T05:55:53;16.73;;;5.98;;
15502;SDS011;7853;52.186;5.948;2022-08-03T05:56:53;11.75;;;5.26;;
15502;SDS011;7853;52.186;5.948;2022-08-03T05:57:52;14.55;;;5.34;;
15502;SDS011;7853;52.186;5.948;2022-08-03T05:58:53;12.48;;;5.38;;
15502;SDS011;7853;52.186;5.948;2022-08-03T05:59:53;15.79;;;5.52;;
15502;SDS011;7853;52.186;5.948;2022-08-03T06:00:53;11.94;;;5.15;;
15502;SDS011;7853;52.186;5.948;2022-08-03T06:01:53;10.96;;;5.07;;
15502;SDS011;7853;52.186;5.948;2022-08-03T06:02:53;15.56;;;5.18;;
15502;SDS011;7853;52.186;5.948;2022-08-03T06:03:53;16.52;;;5.61;;
15502;SDS011;7853;52.186;5.948;2022-08-03T06:04:53;11.16;;;5.51;;